Aérodrome :
LOGIN :

S'inscrire | Disclaimer

   EN    FR    IT 

 










Légende :    VFR   VFR Marginal   IFR   IFR Intensif   IFR Très Intensif
Visi : 
Plafond : 
>= 8 km
>= 3000ft
5 à 8 km
1000 à 3000 ft
1500m à 5 km
500 à 1000 ft
800 à 1500m
200 à 500 ft
< 800m
< 200 ft
Symboles :   Orages  Brouillard  Fortes neiges  Fortes précipitations  Vent > 20 kt
SIGMETs :   Divers  Orages  Givrage  Turbulence  Onde Orograph.  Cendres Volcan.






- Altitude de l'aérodrome : 1822 ft


ETSL - Lechfeld AB

DERNIER METAR :
  • 060620Z 17002KT 3000 MIFG BR FEW280 M07/M08 Q1020 YLO YLO TEMPO RED

METARs EXPIRÉS :
  • 060520Z 16002KT 2000 BR FEW001 M07/M08 Q1020 YLO YLO TEMPO RED
  • 060510Z 16002KT 1200 BR FEW001 M06/M07 Q1020 AMB
  • 060505Z 15002KT 1200 BR BKN001 M06/M07 Q1020 RED
  • 060420Z 09001KT 0200 FZFG VV000 M06/M07 Q1020 RED

TAF TAF ETSL
Valide du 06 à 06h jusqu'au 06 à 15h UTC


060520Z 0606/0615 16005KT 2000 BR FEW003
TEMPO 0606/0608 15005KT 0700 FZFG VV001
BECMG 0608/0610 15007KT 9999 NSW FEW280 BY ETGL



MET'MAP, la Météo Aéronautique d'un coup d'oeil ! - Copyright ORBIFLY Décembre 2007 - Disclaimer

ORBIFLY MET'MAP TEAM :

Programmation & Développement : Alexandra Zaïnal
Sur une idée originale de : Baudouin d'Aumeries
Assistance à la programmation : Marc-Olivier Méhu
Soutien technique & logistique : Manuel Goepfert

Contact : metmap@orbifly.com




SOURCES & CREDITS :

   NOAA